Time;durP1;ratioP1;P1;durP2;ratioP2;P2;SDS_P1;SDS_P2;PMS_P1;PMS_P2;Temp;Humidity;BMP_temperature;BMP_pressure;BME280_temperature;BME280_humidity;BME280_pressure;Samples;Min_cycle;Max_cycle;Signal;HPM_P1;HPM_P2
2023/06/03 00:01:17;;;;;;;11.98;8.50;;;16.80;99.90;;;17.19;77.54;102090.56;5083624;28;20040;-67
2023/06/03 00:03:46;;;;;;;12.50;8.35;;;16.80;99.90;;;17.12;77.60;102085.28;5082717;28;20051;-67
2023/06/03 00:06:15;;;;;;;15.20;9.03;;;16.80;99.90;;;16.89;77.82;102043.66;5082544;28;20083;-67
2023/06/03 00:08:45;;;;;;;12.40;8.25;;;16.70;99.90;;;17.12;77.72;102090.63;5083587;28;20348;-67
2023/06/03 00:11:14;;;;;;;15.13;8.87;;;16.70;99.90;;;17.11;77.88;102087.97;5082066;28;20056;-67
2023/06/03 00:13:42;;;;;;;13.02;8.77;;;16.80;99.90;;;16.82;78.05;102060.69;5084640;28;20282;-67
2023/06/03 00:16:11;;;;;;;16.83;8.73;;;16.70;99.90;;;17.10;77.89;102079.06;5076911;28;20044;-67
2023/06/03 00:18:39;;;;;;;17.90;8.45;;;16.70;99.90;;;17.04;78.05;102081.78;5084489;28;20058;-67
2023/06/03 00:21:09;;;;;;;13.02;8.95;;;16.70;99.90;;;16.93;78.18;102067.69;5081680;28;20053;-67
2023/06/03 00:23:38;;;;;;;12.32;8.75;;;16.70;99.90;;;17.01;78.32;102078.28;5081805;28;20127;-67
2023/06/03 00:26:08;;;;;;;16.45;8.32;;;16.70;99.90;;;17.02;78.23;102072.91;5082604;28;20584;-67
2023/06/03 00:28:36;;;;;;;14.88;8.77;;;16.60;99.90;;;17.01;78.32;102075.59;5097759;28;20527;-67
2023/06/03 00:31:05;;;;;;;12.68;8.30;;;16.70;99.90;;;16.95;78.71;102064.97;5099290;28;20067;-67
2023/06/03 00:33:33;;;;;;;13.48;8.70;;;16.70;99.90;;;16.99;78.51;102075.59;5081590;28;20051;-68
2023/06/03 00:36:02;;;;;;;10.95;8.40;;;16.60;99.90;;;16.94;78.47;102074.78;5084394;28;20055;-67
2023/06/03 00:38:31;;;;;;;14.60;9.32;;;16.60;99.90;;;16.89;78.70;102075.72;5076794;28;20066;-67
2023/06/03 00:40:59;;;;;;;12.45;8.50;;;16.60;99.90;;;16.87;78.69;102069.53;5077290;28;20493;-67
2023/06/03 00:43:29;;;;;;;12.45;8.48;;;16.50;99.90;;;16.85;78.78;102063.31;5083711;28;20040;-68
2023/06/03 00:45:57;;;;;;;13.93;9.30;;;16.50;99.90;;;16.92;78.68;102079.25;5081764;28;20040;-68
2023/06/03 00:48:25;;;;;;;11.40;8.30;;;16.60;99.90;;;16.87;78.49;102077.53;5082950;28;20036;-68
2023/06/03 00:50:54;;;;;;;12.05;8.50;;;16.50;99.90;;;16.90;78.46;102073.03;5098174;28;20395;-68
2023/06/03 00:53:23;;;;;;;11.43;8.52;;;16.50;99.90;;;16.89;78.37;102071.28;5082019;28;20056;-67
2023/06/03 00:55:51;;;;;;;13.52;8.35;;;16.50;99.90;;;16.88;78.24;102071.28;5083144;28;20075;-67
2023/06/03 00:58:20;;;;;;;12.55;8.77;;;16.50;99.90;;;16.86;78.23;102071.28;5079970;28;20052;-67
2023/06/03 01:00:50;;;;;;;13.07;8.15;;;16.50;99.90;;;16.86;78.23;102068.63;5099629;28;20226;-67
2023/06/03 01:03:19;;;;;;;12.82;8.18;;;16.50;99.90;;;16.84;78.19;102073.09;5076816;28;20445;-67
2023/06/03 01:05:55;;;;;;;13.82;9.02;;;16.40;99.90;;;16.89;78.06;102073.06;5083610;28;20055;-67
2023/06/03 01:08:32;;;;;;;13.05;7.88;;;16.50;99.90;;;16.85;78.07;102069.53;5064901;28;20054;-67
2023/06/03 01:11:09;;;;;;;13.20;7.82;;;16.50;99.90;;;16.89;77.82;102071.28;5080798;28;20044;-67
2023/06/03 01:13:45;;;;;;;15.25;8.25;;;16.50;99.90;;;16.86;77.93;102079.31;5094644;28;20513;-67
2023/06/03 01:16:18;;;;;;;14.43;8.95;;;16.50;99.90;;;16.80;77.84;102079.38;5114319;28;20047;-67
2023/06/03 01:18:48;;;;;;;16.08;7.95;;;16.50;99.90;;;16.88;77.88;102068.59;5084071;28;20052;-67
2023/06/03 01:21:17;;;;;;;11.55;8.23;;;16.50;99.90;;;16.87;77.78;102073.09;5076726;28;20043;-67
2023/06/03 01:23:48;;;;;;;14.65;7.05;;;16.50;99.90;;;16.86;77.60;102071.28;5099259;28;20040;-67
2023/06/03 01:26:19;;;;;;;13.23;8.13;;;16.50;99.90;;;16.85;77.53;102068.66;5081576;28;20060;-67
2023/06/03 01:28:49;;;;;;;10.23;8.43;;;16.50;99.90;;;16.86;77.38;102076.66;5081956;28;20054;-67
2023/06/03 01:31:18;;;;;;;14.98;7.75;;;16.50;99.90;;;16.80;77.66;102066.00;5082886;28;20052;-67
2023/06/03 01:33:47;;;;;;;12.40;7.80;;;16.40;99.90;;;16.81;77.51;102067.81;5081057;28;20076;-67
2023/06/03 01:36:16;;;;;;;13.80;8.15;;;16.50;99.90;;;16.78;77.38;102080.31;5087676;28;20048;-67
2023/06/03 01:38:47;;;;;;;13.77;7.67;;;16.40;99.90;;;16.78;77.49;102080.31;5079093;28;20409;-67
2023/06/03 01:41:16;;;;;;;9.82;7.20;;;16.40;99.90;;;16.82;77.44;102079.38;5087062;28;20048;-67
2023/06/03 01:43:46;;;;;;;9.35;7.13;;;16.40;99.90;;;16.81;77.16;102073.16;5100896;28;20501;-67
2023/06/03 01:46:14;;;;;;;11.38;7.45;;;16.50;99.90;;;16.80;76.96;102081.19;5101597;28;20050;-67
2023/06/03 01:48:43;;;;;;;11.50;7.93;;;16.50;99.90;;;16.65;77.08;102076.88;5086165;28;20071;-67
2023/06/03 01:51:12;;;;;;;12.60;7.55;;;16.40;99.90;;;16.70;76.92;102079.50;5083879;28;20052;-67
2023/06/03 01:53:40;;;;;;;11.48;7.80;;;16.40;99.90;;;16.68;77.22;102082.19;5086650;28;20044;-67
2023/06/03 01:56:10;;;;;;;12.13;7.50;;;16.30;99.90;;;16.70;76.95;102082.19;5084057;28;20068;-67
2023/06/03 01:58:38;;;;;;;12.45;7.70;;;16.30;99.90;;;16.72;76.96;102080.38;5078456;28;20484;-67
2023/06/03 02:01:07;;;;;;;12.30;7.38;;;16.40;99.90;;;16.74;76.79;102079.44;5095985;28;20557;-67
2023/06/03 02:03:37;;;;;;;13.68;7.75;;;16.40;99.90;;;16.67;76.74;102074.19;5086651;28;20040;-67
2023/06/03 02:06:06;;;;;;;13.18;7.55;;;16.30;99.90;;;16.61;76.73;102074.22;5100304;28;20045;-67
2023/06/03 02:08:36;;;;;;;12.83;7.33;;;16.30;99.90;;;16.67;76.62;102076.84;5118124;27;20080;-67
2023/06/03 02:11:04;;;;;;;9.80;7.18;;;16.30;99.90;;;16.61;76.72;102069.78;5101543;28;20052;-67
2023/06/03 02:13:34;;;;;;;11.13;7.60;;;16.30;99.90;;;16.64;76.71;102067.09;5084297;28;20512;-67
2023/06/03 02:16:03;;;;;;;9.97;7.00;;;16.30;99.90;;;16.61;76.58;102071.56;5102334;28;20102;-67
2023/06/03 02:18:34;;;;;;;12.85;7.43;;;16.30;99.90;;;16.63;76.29;102073.31;5083282;28;20048;-67
2023/06/03 02:21:02;;;;;;;9.38;6.53;;;16.30;99.90;;;16.63;76.21;102067.09;5078779;28;20048;-67
2023/06/03 02:23:31;;;;;;;12.00;7.38;;;16.30;99.90;;;16.59;76.23;102068.06;5085785;28;20485;-67
2023/06/03 02:26:01;;;;;;;10.68;8.20;;;16.30;99.90;;;16.45;76.00;102040.53;5083211;28;20059;-67
2023/06/03 02:28:30;;;;;;;14.93;7.60;;;16.20;99.90;;;16.63;75.87;102062.63;5085178;28;20048;-67
2023/06/03 02:31:00;;;;;;;11.70;7.10;;;16.30;99.90;;;16.58;75.83;102055.56;5085374;28;20047;-67
2023/06/03 02:33:28;;;;;;;9.83;7.00;;;16.20;99.90;;;16.59;75.69;102060.91;5082592;28;20052;-67
2023/06/03 02:35:57;;;;;;;12.32;7.55;;;16.20;99.90;;;16.57;75.71;102064.50;5101701;28;20066;-67
2023/06/03 02:38:25;;;;;;;12.38;6.90;;;16.20;99.90;;;16.54;75.70;102057.41;5081921;28;20048;-68
2023/06/03 02:40:53;;;;;;;9.73;7.32;;;16.20;99.90;;;16.52;75.54;102058.31;5078999;28;20041;-67
2023/06/03 02:43:22;;;;;;;10.93;7.60;;;16.20;99.90;;;16.47;75.63;102060.13;5084970;28;20134;-67
2023/06/03 02:45:50;;;;;;;11.27;7.68;;;16.20;99.90;;;16.49;75.63;102061.03;5065825;28;20102;-67
2023/06/03 02:48:20;;;;;;;10.20;7.75;;;16.20;99.90;;;16.43;75.57;102056.59;5084046;28;20543;-67
2023/06/03 02:50:48;;;;;;;13.60;7.67;;;16.10;99.90;;;16.45;75.45;102067.25;5083197;28;20048;-67
2023/06/03 02:53:17;;;;;;;10.15;6.72;;;16.10;99.90;;;16.48;74.95;102068.13;5084516;28;20099;-67
2023/06/03 02:55:46;;;;;;;13.00;8.00;;;16.20;99.90;;;16.45;75.00;102062.81;5083819;28;20044;-67
2023/06/03 02:58:15;;;;;;;13.70;7.10;;;16.10;99.90;;;16.42;74.95;102070.81;5099132;28;20079;-67
2023/06/03 03:00:43;;;;;;;14.43;7.93;;;16.10;99.90;;;16.41;74.67;102060.16;5085684;28;20466;-67
2023/06/03 03:03:13;;;;;;;12.77;7.38;;;16.10;99.90;;;16.38;74.44;102066.41;5082366;28;20044;-67
2023/06/03 03:05:43;;;;;;;16.40;7.85;;;16.00;99.90;;;16.42;74.53;102062.81;5053339;28;20060;-67
2023/06/03 03:08:11;;;;;;;11.33;8.13;;;16.00;99.90;;;16.44;74.22;102060.13;5085451;28;20492;-67
2023/06/03 03:10:40;;;;;;;8.80;6.95;;;16.10;99.90;;;16.43;74.09;102061.03;5082196;28;20053;-68
2023/06/03 03:13:08;;;;;;;8.48;7.22;;;16.10;99.90;;;15.79;73.80;101956.59;5083081;28;20055;-68
2023/06/03 03:15:37;;;;;;;9.50;7.18;;;16.00;99.90;;;16.41;73.92;102069.06;5099688;28;20057;-68
2023/06/03 03:18:06;;;;;;;11.32;7.25;;;16.00;99.90;;;16.43;73.85;102071.72;5083709;28;20075;-68
2023/06/03 03:20:34;;;;;;;11.90;7.45;;;16.10;99.90;;;16.42;73.63;102069.94;5100650;28;20055;-67
2023/06/03 03:23:06;;;;;;;11.50;7.13;;;16.10;99.90;;;16.40;73.54;102064.63;5098242;28;20072;-68
2023/06/03 03:25:34;;;;;;;12.07;7.20;;;16.10;99.90;;;16.36;73.57;102065.53;5110759;27;20059;-67
2023/06/03 03:28:03;;;;;;;12.38;7.30;;;16.00;99.90;;;16.35;73.31;102065.56;5085318;28;20412;-67
2023/06/03 03:30:31;;;;;;;10.45;7.18;;;16.00;99.90;;;16.39;73.37;102061.97;5098413;28;20040;-67
2023/06/03 03:33:01;;;;;;;11.48;7.25;;;16.00;99.90;;;16.32;73.26;102063.78;5083241;28;20495;-68
2023/06/03 03:35:29;;;;;;;10.18;7.13;;;16.00;99.90;;;16.32;73.07;102069.13;5083429;28;20082;-67
2023/06/03 03:38:05;;;;;;;13.20;7.43;;;16.00;99.90;;;16.36;72.90;102072.66;5082035;28;20043;-67
2023/06/03 03:40:38;;;;;;;9.10;6.93;;;16.00;99.90;;;16.35;73.00;102065.56;5060378;28;20490;-67
2023/06/03 03:43:17;;;;;;;11.82;7.60;;;16.00;99.90;;;16.30;72.81;102081.59;5061505;28;20049;-67
2023/06/03 03:45:47;;;;;;;11.50;7.68;;;15.90;99.90;;;16.37;72.71;102078.00;5081870;28;20140;-67
2023/06/03 03:48:23;;;;;;;10.27;7.00;;;16.00;99.90;;;16.37;72.59;102072.66;5100515;28;20048;-67
2023/06/03 03:50:54;;;;;;;9.82;7.40;;;16.00;99.90;;;16.32;72.58;102073.63;5100458;28;20449;-67
2023/06/03 03:53:36;;;;;;;9.30;7.45;;;16.00;99.90;;;16.28;72.42;102075.41;5099672;28;20114;-67
2023/06/03 03:56:18;;;;;;;13.10;7.03;;;15.90;99.90;;;16.29;72.33;102066.50;5077434;28;20045;-67
2023/06/03 03:58:52;;;;;;;9.13;6.80;;;15.90;99.90;;;16.32;72.21;102077.16;5081215;28;20054;-67
2023/06/03 04:01:28;;;;;;;9.10;6.82;;;16.00;99.90;;;16.34;72.03;102074.50;5066921;28;20091;-68
2023/06/03 04:04:06;;;;;;;11.77;7.82;;;15.90;99.90;;;16.30;72.01;102070.94;5095036;28;20044;-67
2023/06/03 04:06:38;;;;;;;11.10;7.38;;;15.90;99.90;;;16.29;71.81;102077.19;5083119;28;20501;-68
2023/06/03 04:09:11;;;;;;;12.35;7.00;;;15.90;99.90;;;16.31;71.55;102075.38;5099610;28;20408;-67
2023/06/03 04:11:43;;;;;;;10.10;7.03;;;15.90;99.90;;;16.32;71.48;102074.47;5081340;28;20051;-68
2023/06/03 04:14:18;;;;;;;12.10;7.10;;;16.00;99.90;;;16.35;71.45;102077.13;5095345;28;20135;-67
2023/06/03 04:16:56;;;;;;;10.05;6.95;;;16.00;99.90;;;16.36;71.42;102078.00;5115885;27;20083;-67
2023/06/03 04:19:41;;;;;;;11.82;7.97;;;16.00;99.90;;;16.33;71.18;102078.03;5078387;28;20044;-67
2023/06/03 04:22:22;;;;;;;10.40;6.60;;;15.90;99.90;;;16.33;70.92;102078.03;5097663;28;20049;-67
2023/06/03 04:24:57;;;;;;;11.85;7.07;;;16.00;99.90;;;16.33;70.91;102081.59;5093200;28;20498;-67
2023/06/03 04:27:32;;;;;;;8.25;7.38;;;15.90;99.90;;;16.36;71.01;102084.22;5098083;28;20417;-67
2023/06/03 04:30:04;;;;;;;11.82;7.15;;;16.00;99.90;;;16.39;70.59;102083.34;5099456;28;20447;-67
2023/06/03 04:32:32;;;;;;;;;;;16.00;99.90;;;16.36;70.60;102083.34;5096971;28;20048;-67
2023/06/03 04:35:01;;;;;;;9.30;7.00;;;16.00;99.90;;;16.34;70.55;102080.69;5067959;28;20352;-67
2023/06/03 04:37:30;;;;;;;13.65;6.85;;;16.00;99.90;;;16.35;70.64;102078.91;5083077;28;20055;-67
2023/06/03 04:40:01;;;;;;;9.02;6.65;;;16.00;99.90;;;16.39;70.18;102086.91;5097309;28;20048;-67
2023/06/03 04:42:33;;;;;;;9.02;7.00;;;16.00;99.90;;;16.34;70.22;102083.34;5082872;28;20048;-67
2023/06/03 04:45:03;;;;;;;10.10;7.43;;;16.00;99.90;;;16.38;70.13;102079.75;5098726;28;20051;-67
2023/06/03 04:47:39;;;;;;;8.77;6.65;;;16.00;99.90;;;16.36;69.81;102073.56;5096733;28;20485;-67
2023/06/03 04:50:09;;;;;;;9.55;6.75;;;16.00;99.90;;;16.43;69.47;102079.72;5077688;28;20566;-67
2023/06/03 04:52:38;;;;;;;10.77;7.53;;;16.00;99.90;;;16.46;69.34;102075.25;5082040;28;20048;-67
2023/06/03 04:55:12;;;;;;;9.13;7.20;;;16.10;99.90;;;16.49;69.37;102077.91;5081319;28;20489;-67
2023/06/03 04:57:47;;;;;;;9.18;6.75;;;16.20;99.90;;;16.57;69.00;102084.06;5096938;28;20554;-67
2023/06/03 05:00:19;;;;;;;9.55;7.03;;;16.20;99.90;;;16.56;68.77;102082.31;5059722;28;20143;-67
2023/06/03 05:02:56;;;;;;;7.85;6.57;;;16.20;99.90;;;16.59;68.48;102084.09;5082999;28;20401;-67
2023/06/03 05:05:28;;;;;;;9.75;6.70;;;16.20;99.90;;;16.49;68.25;102085.06;5065643;28;20082;-67
2023/06/03 05:07:58;;;;;;;9.88;7.25;;;16.20;99.90;;;16.57;68.34;102091.22;5079642;28;20071;-68
2023/06/03 05:10:28;;;;;;;8.90;6.60;;;16.20;99.90;;;16.54;67.89;102080.53;5063283;28;20139;-67
2023/06/03 05:12:58;;;;;;;8.85;6.80;;;16.20;99.90;;;16.59;67.66;102102.78;5056262;28;20452;-67
2023/06/03 05:15:28;;;;;;;9.32;6.93;;;16.30;99.90;;;16.59;67.47;102092.94;5102881;28;20053;-67
2023/06/03 05:17:58;;;;;;;9.00;6.93;;;16.30;99.90;;;16.64;67.69;102101.84;5084942;28;20041;-68
2023/06/03 05:20:26;;;;;;;8.15;6.38;;;16.30;99.90;;;16.71;67.16;102106.22;5101713;28;20078;-67
2023/06/03 05:22:55;;;;;;;8.88;6.75;;;16.40;99.90;;;16.22;66.77;102017.59;5085680;28;20040;-67
2023/06/03 05:25:24;;;;;;;7.50;6.63;;;16.40;99.90;;;16.68;66.54;102084.88;5100817;28;20044;-67
2023/06/03 05:27:54;;;;;;;8.32;6.10;;;16.50;99.90;;;16.80;66.04;102114.13;5103509;28;20054;-68
2023/06/03 05:30:33;;;;;;;11.27;6.55;;;16.50;99.90;;;16.73;65.63;102108.84;5082067;28;20472;-68
2023/06/03 05:33:02;;;;;;;10.23;6.22;;;16.50;99.90;;;16.76;65.64;102111.53;5101588;28;20052;-67
2023/06/03 05:35:31;;;;;;;10.57;6.50;;;16.40;99.90;;;16.78;65.34;102109.72;5085347;28;20101;-67
2023/06/03 05:37:59;;;;;;;7.32;5.80;;;16.50;99.90;;;16.91;65.64;102114.91;5085157;28;20505;-67
2023/06/03 05:40:28;;;;;;;7.97;6.47;;;16.50;99.90;;;16.92;64.86;102116.69;5102808;28;20052;-69
2023/06/03 05:42:59;;;;;;;11.50;6.40;;;16.60;99.90;;;16.99;65.12;102113.03;5083003;28;20402;-68
2023/06/03 05:45:28;;;;;;;9.23;6.32;;;16.60;99.90;;;16.87;64.18;102117.63;5113203;27;20049;-68
2023/06/03 05:47:56;;;;;;;8.63;6.28;;;16.70;99.90;;;16.95;64.62;102118.44;5102519;28;20512;-68
2023/06/03 05:50:25;;;;;;;8.18;6.20;;;16.60;99.90;;;17.06;64.85;102114.75;5084903;28;20048;-68
2023/06/03 05:52:55;;;;;;;10.52;6.68;;;16.70;99.90;;;17.06;64.00;102122.78;5084940;28;20044;-68
2023/06/03 05:55:25;;;;;;;10.47;6.23;;;16.80;99.90;;;17.18;63.72;102111.06;5101557;28;20615;-68
2023/06/03 05:57:54;;;;;;;8.45;6.07;;;16.80;99.90;;;17.27;63.35;102121.63;5100150;28;20381;-67
2023/06/03 06:00:24;;;;;;;7.95;6.40;;;16.90;99.90;;;17.35;62.78;102109.06;5086537;28;20044;-68
2023/06/03 06:02:56;;;;;;;10.05;6.95;;;17.00;99.90;;;17.38;62.39;102118.84;5078787;28;20056;-68
2023/06/03 06:05:25;;;;;;;6.70;6.00;;;17.00;99.90;;;17.37;61.39;102120.63;5102182;28;20501;-67
2023/06/03 06:07:54;;;;;;;8.00;6.47;;;17.00;99.90;;;17.22;61.46;102122.59;5100157;28;20472;-67
2023/06/03 06:10:22;;;;;;;9.07;5.82;;;17.00;99.90;;;17.34;61.79;102123.34;5101404;28;20039;-68
2023/06/03 06:12:51;;;;;;;9.50;6.07;;;17.00;99.90;;;17.41;61.88;102116.09;5084000;28;20094;-68
2023/06/03 06:15:19;;;;;;;9.70;6.32;;;17.10;99.90;;;17.59;61.33;102119.50;5083845;28;20044;-67
2023/06/03 06:17:49;;;;;;;9.35;6.20;;;17.30;99.90;;;17.56;61.10;102103.47;5084700;28;20041;-68
2023/06/03 06:20:18;;;;;;;10.48;6.43;;;17.30;99.90;;;17.50;60.52;102119.59;5082988;28;20131;-67
2023/06/03 06:22:49;;;;;;;6.53;5.82;;;17.20;99.90;;;17.59;60.35;102130.19;5102513;28;20040;-67
2023/06/03 06:25:18;;;;;;;8.25;6.32;;;17.30;99.90;;;17.37;60.18;102125.06;5079905;28;20083;-68
2023/06/03 06:27:48;;;;;;;9.93;6.23;;;17.20;99.90;;;17.44;60.59;102116.94;5084935;28;20063;-68
2023/06/03 06:30:18;;;;;;;13.02;7.07;;;17.20;99.90;;;17.63;61.09;102125.69;5100185;28;20044;-68
2023/06/03 06:32:51;;;;;;;7.93;5.78;;;17.30;99.90;;;17.80;60.48;102119.19;5085172;28;20072;-68
2023/06/03 06:35:28;;;;;;;9.57;6.07;;;17.40;99.90;;;17.89;59.47;102119.06;5102368;28;20051;-68
2023/06/03 06:37:58;;;;;;;7.65;6.55;;;17.60;99.90;;;17.90;59.45;102119.94;5079094;28;20066;-68
2023/06/03 06:40:34;;;;;;;11.45;6.55;;;17.60;99.90;;;18.00;59.34;102114.41;5084151;28;20071;-68
2023/06/03 06:43:06;;;;;;;8.55;6.00;;;17.70;99.90;;;18.01;58.62;102112.63;5101539;28;20488;-68
2023/06/03 06:45:56;;;;;;;16.17;6.85;;;17.70;99.90;;;17.81;58.49;102112.91;5082365;28;20432;-68
2023/06/03 06:48:26;;;;;;;8.50;6.82;;;17.60;99.90;;;18.02;58.39;102122.47;5099247;28;20545;-66
2023/06/03 06:50:59;;;;;;;8.85;6.00;;;17.70;99.90;;;18.15;59.41;102116.00;5111449;27;20128;-66
2023/06/03 06:53:36;;;;;;;8.45;6.03;;;17.80;99.90;;;18.32;59.17;102116.59;5079574;28;20084;-66
2023/06/03 06:56:09;;;;;;;8.93;6.05;;;18.00;99.90;;;18.44;58.08;102124.47;5082797;28;20060;-66
2023/06/03 06:58:46;;;;;;;7.35;6.07;;;18.10;99.90;;;18.06;57.51;102104.53;5094132;28;20052;-66
2023/06/03 07:01:15;;;;;;;9.10;5.82;;;18.00;99.90;;;18.54;58.10;102123.38;5095472;28;20520;-66
2023/06/03 07:03:49;;;;;;;6.53;5.40;;;18.20;99.90;;;18.59;57.21;102134.03;5083619;28;20455;-66
2023/06/03 07:06:18;;;;;;;;;;;18.30;99.90;;;18.54;56.16;102131.44;5083467;28;20063;-66
2023/06/03 07:08:49;;;;;;;8.35;5.93;;;18.30;99.90;;;18.75;56.63;102124.84;5081933;28;19927;-66
2023/06/03 07:11:19;;;;;;;10.73;5.43;;;18.40;99.90;;;18.95;56.58;102130.69;5101189;28;20048;-66
2023/06/03 07:13:53;;;;;;;9.95;5.90;;;18.60;99.90;;;19.10;56.12;102137.59;5078480;28;20562;-66
2023/06/03 07:16:24;;;;;;;6.93;5.18;;;18.80;99.90;;;19.22;56.27;102140.03;5083711;28;20051;-66
2023/06/03 07:18:54;;;;;;;9.23;5.65;;;18.90;99.90;;;19.41;55.63;102139.69;5099484;28;20103;-66
2023/06/03 07:21:48;;;;;;;6.57;5.38;;;19.10;99.90;;;19.57;54.83;102138.44;5081528;28;20498;-66
2023/06/03 07:24:17;;;;;;;7.75;5.20;;;19.20;99.90;;;19.65;54.26;102138.25;5099581;28;20413;-66
2023/06/03 07:26:49;;;;;;;8.95;5.30;;;19.30;99.90;;;19.68;53.83;102127.47;5083784;28;20048;-66
2023/06/03 07:29:17;;;;;;;9.80;5.10;;;19.40;99.90;;;19.82;52.86;102136.13;5097744;28;20041;-67
2023/06/03 07:31:47;;;;;;;7.90;5.28;;;19.50;99.90;;;19.84;53.29;102131.56;5100351;28;20054;-67
2023/06/03 07:34:23;;;;;;;7.43;5.68;;;19.60;99.90;;;20.02;53.46;102141.00;5078549;28;20131;-66
2023/06/03 07:36:54;;;;;;;8.85;4.95;;;19.70;99.90;;;19.76;53.43;102061.91;5099086;28;20051;-66
2023/06/03 07:39:23;;;;;;;11.27;5.20;;;19.90;99.90;;;20.33;52.32;102143.00;5066840;28;20044;-67
2023/06/03 07:41:59;;;;;;;6.70;5.05;;;20.00;99.90;;;20.45;51.24;102145.38;5077115;28;20059;-67
2023/06/03 07:44:43;;;;;;;6.45;4.60;;;20.20;99.90;;;20.58;50.86;102140.56;5081849;28;20044;-67
2023/06/03 07:47:15;;;;;;;7.15;4.97;;;20.30;99.90;;;20.74;50.82;102146.44;5084417;28;20066;-67
2023/06/03 07:49:47;;;;;;;7.03;4.82;;;20.40;99.90;;;20.73;48.15;102131.25;5081411;28;20048;-67
2023/06/03 07:52:19;;;;;;;8.10;5.07;;;20.50;99.90;;;20.80;48.45;102139.09;5078912;28;20101;-67
2023/06/03 07:54:48;;;;;;;5.88;4.30;;;20.50;99.90;;;20.81;47.90;102143.53;5083624;28;20043;-67
2023/06/03 07:57:17;;;;;;;9.57;4.85;;;20.60;99.90;;;20.52;48.95;102141.59;5083181;28;20127;-67
2023/06/03 07:59:53;;;;;;;8.23;4.93;;;20.30;99.90;;;20.76;47.85;102150.88;5083005;28;20048;-67
2023/06/03 08:02:22;;;;;;;5.85;4.57;;;20.40;99.90;;;20.77;47.16;102149.94;5085041;28;20076;-67
2023/06/03 08:05:00;;;;;;;6.68;3.90;;;20.50;99.90;;;20.64;46.69;102122.47;5077759;28;20036;-67
2023/06/03 08:07:29;;;;;;;6.35;4.05;;;20.60;99.90;;;21.02;46.76;102158.28;5082770;28;20052;-67
2023/06/03 08:09:57;;;;;;;5.55;4.20;;;20.70;99.90;;;21.09;46.16;102163.47;5083377;28;20048;-67
2023/06/03 08:12:32;;;;;;;5.25;4.35;;;20.80;99.90;;;21.25;46.60;102158.53;5081980;28;20048;-67
2023/06/03 08:15:01;;;;;;;5.80;3.85;;;20.90;99.90;;;20.95;46.44;102156.63;5092713;28;20547;-67
2023/06/03 08:17:40;;;;;;;8.93;4.10;;;20.80;99.90;;;21.15;43.76;102149.84;5084556;28;20055;-67
2023/06/03 08:20:12;;;;;;;5.82;4.10;;;20.90;99.90;;;20.70;44.48;102153.72;5098852;28;20044;-67
2023/06/03 08:22:43;;;;;;;6.13;4.13;;;20.50;99.90;;;20.97;45.12;102160.16;5081614;28;20049;-67
2023/06/03 08:25:12;;;;;;;7.22;4.30;;;20.60;99.90;;;21.23;44.73;102146.94;5076783;28;20040;-67
2023/06/03 08:27:41;;;;;;;5.85;4.15;;;20.80;99.90;;;20.96;44.94;102143.16;5077832;28;20493;-67
2023/06/03 08:30:12;;;;;;;9.07;4.40;;;20.80;99.90;;;21.12;44.31;102157.09;5083821;28;20440;-67
2023/06/03 08:32:43;;;;;;;6.53;4.10;;;20.80;99.90;;;21.13;42.83;102153.50;5065265;28;20052;-67
2023/06/03 08:35:15;;;;;;;6.30;4.18;;;20.80;99.90;;;20.29;46.29;102137.72;5082462;28;20130;-67
2023/06/03 08:37:44;;;;;;;6.35;4.30;;;20.00;99.90;;;20.73;44.74;102139.31;5084077;28;20076;-67
2023/06/03 08:40:15;;;;;;;9.18;4.05;;;20.30;99.90;;;20.97;44.46;102142.22;5079475;28;20036;-67
2023/06/03 08:42:45;;;;;;;5.18;3.85;;;20.50;99.90;;;21.24;42.35;102143.31;5077280;28;20044;-67
2023/06/03 08:45:15;;;;;;;5.57;3.90;;;20.90;99.90;;;21.50;43.60;102140.75;5083510;28;20446;-67
2023/06/03 08:48:02;;;;;;;4.88;3.90;;;21.10;99.90;;;21.82;42.96;102137.13;5082021;28;20041;-67
2023/06/03 08:50:34;;;;;;;7.15;3.78;;;21.40;99.90;;;21.44;40.04;102147.22;5077543;28;20044;-67
2023/06/03 08:53:08;;;;;;;6.22;3.95;;;21.40;99.90;;;20.93;43.45;102129.78;5083083;28;20040;-67
2023/06/03 08:55:39;;;;;;;5.75;3.70;;;20.70;99.90;;;21.42;40.69;102138.31;5082876;28;20049;-67
2023/06/03 08:58:13;;;;;;;5.65;3.45;;;21.10;99.90;;;21.25;40.86;102124.41;5081261;28;20041;-67
2023/06/03 09:00:43;;;;;;;8.35;3.70;;;21.10;99.90;;;20.78;41.02;102135.56;5077355;28;20036;-67
2023/06/03 09:03:13;;;;;;;10.43;3.67;;;20.60;99.90;;;20.57;42.64;102120.00;5083084;28;20048;-67
2023/06/03 09:05:43;;;;;;;6.65;3.60;;;20.40;99.90;;;21.27;41.91;102127.94;5081587;28;20415;-67
2023/06/03 09:08:13;;;;;;;6.35;3.72;;;20.80;99.90;;;21.65;41.15;102129.53;5082227;28;20142;-67
2023/06/03 09:10:42;;;;;;;5.03;3.72;;;21.20;99.90;;;21.93;40.82;102121.53;5083184;28;20055;-66
2023/06/03 09:13:10;;;;;;;6.32;3.38;;;21.50;99.90;;;21.46;39.53;102129.22;5080963;28;20044;-67
2023/06/03 09:15:39;;;;;;;4.00;3.35;;;21.30;99.90;;;21.58;38.82;102117.19;5083801;28;20040;-67
2023/06/03 09:18:07;;;;;;;10.05;3.70;;;21.30;99.90;;;21.73;38.61;102118.53;5076113;28;20052;-67
2023/06/03 09:20:37;;;;;;;7.28;3.72;;;21.40;99.90;;;21.51;38.84;102129.94;5083520;28;20055;-67
2023/06/03 09:23:08;;;;;;;6.43;4.00;;;21.40;99.90;;;21.45;40.37;102131.91;5081266;28;20098;-67
2023/06/03 09:25:36;;;;;;;5.72;3.67;;;21.10;99.90;;;21.81;39.43;102130.88;5082224;28;20044;-66
2023/06/03 09:28:05;;;;;;;8.57;6.38;;;21.40;99.90;;;21.79;39.83;102129.13;5097330;28;20589;-67
2023/06/03 09:30:35;;;;;;;4.95;3.60;;;21.40;99.90;;;22.06;38.96;102131.88;5080126;28;20055;-67
2023/06/03 09:33:04;;;;;;;8.05;5.10;;;21.70;99.90;;;22.34;39.13;102135.44;5065343;28;20526;-67
2023/06/03 09:35:32;;;;;;;7.35;4.43;;;22.00;99.90;;;22.49;38.72;102133.19;5080277;28;20077;-67
2023/06/03 09:38:04;;;;;;;7.35;4.18;;;22.20;99.90;;;22.73;39.31;102129.66;5083572;28;20043;-67
2023/06/03 09:40:35;;;;;;;6.18;3.90;;;22.40;99.90;;;22.73;36.94;102149.44;5077197;28;20056;-67
2023/06/03 09:43:11;;;;;;;6.43;3.58;;;22.50;97.90;;;22.60;37.92;102112.13;5097970;28;20572;-67
2023/06/03 09:45:40;;;;;;;6.82;3.20;;;22.40;99.90;;;22.70;37.56;102125.28;5098320;28;20080;-67
2023/06/03 09:48:10;;;;;;;5.68;3.63;;;22.40;99.90;;;22.71;36.92;102120.75;5080729;28;20129;-67
2023/06/03 09:50:50;;;;;;;5.05;3.50;;;22.40;99.30;;;22.06;39.77;102121.09;5083852;28;20054;-67
2023/06/03 09:53:19;;;;;;;6.60;3.42;;;22.00;99.90;;;22.13;39.23;102128.03;5079152;28;20098;-67
2023/06/03 09:55:49;;;;;;;4.73;3.27;;;21.80;99.90;;;21.71;38.57;102118.56;5083066;28;20048;-67
2023/06/03 09:58:23;;;;;;;4.47;4.07;;;21.50;99.90;;;21.18;38.86;102128.22;5085231;28;20070;-67
2023/06/03 10:00:55;;;;;;;10.88;4.05;;;21.10;99.90;;;21.21;40.28;102117.38;5078316;28;20048;-67
2023/06/03 10:03:25;;;;;;;8.63;3.75;;;20.80;99.90;;;21.79;38.63;102137.19;5099927;28;20417;-67
2023/06/03 10:05:53;;;;;;;6.55;3.58;;;21.30;99.90;;;22.16;38.07;102113.59;5085851;28;20062;-66
2023/06/03 10:08:29;;;;;;;9.20;3.60;;;21.70;99.90;;;22.43;38.53;102123.47;5084955;28;20048;-67
2023/06/03 10:11:01;;;;;;;5.65;3.70;;;22.10;99.90;;;22.32;37.36;102128.31;5084247;28;20071;-67
2023/06/03 10:13:30;;;;;;;4.30;3.90;;;22.00;99.90;;;22.41;38.42;102106.47;5079991;28;20052;-67
2023/06/03 10:16:01;;;;;;;5.80;3.60;;;22.10;99.90;;;22.64;36.47;102121.91;5086603;28;20552;-67
2023/06/03 10:18:38;;;;;;;3.90;3.50;;;22.30;97.90;;;22.98;37.05;102120.66;5084385;28;20124;-67
2023/06/03 10:21:08;;;;;;;6.35;3.92;;;22.60;99.90;;;22.99;35.66;102140.44;5084231;28;20079;-67
2023/06/03 10:23:39;;;;;;;6.40;3.67;;;22.70;92.20;;;22.85;34.92;102126.53;5102458;28;20079;-67
2023/06/03 10:26:10;;;;;;;3.47;3.17;;;22.60;87.80;;;22.98;34.06;102122.47;5078000;28;20094;-67